sensor_id;sensor_type;location;lat;lon;timestamp;temperature;humidity
72591;SHT31;60625;51.212;5.952;2023-08-24T00:02:00;19.93;71.65
72591;SHT31;60625;51.212;5.952;2023-08-24T00:07:02;19.87;71.93
72591;SHT31;60625;51.212;5.952;2023-08-24T00:12:03;19.78;72.28
72591;SHT31;60625;51.212;5.952;2023-08-24T00:17:05;19.66;72.49
72591;SHT31;60625;51.212;5.952;2023-08-24T00:22:06;19.56;73.00
72591;SHT31;60625;51.212;5.952;2023-08-24T00:27:06;19.55;73.21
72591;SHT31;60625;51.212;5.952;2023-08-24T00:32:07;19.50;73.44
72591;SHT31;60625;51.212;5.952;2023-08-24T00:37:08;19.49;73.49
72591;SHT31;60625;51.212;5.952;2023-08-24T00:42:09;19.45;73.71
72591;SHT31;60625;51.212;5.952;2023-08-24T00:47:15;19.38;74.10
72591;SHT31;60625;51.212;5.952;2023-08-24T00:52:18;19.38;74.19
72591;SHT31;60625;51.212;5.952;2023-08-24T00:57:18;19.37;74.32
72591;SHT31;60625;51.212;5.952;2023-08-24T01:02:19;19.36;74.29
72591;SHT31;60625;51.212;5.952;2023-08-24T01:07:19;19.34;74.30
72591;SHT31;60625;51.212;5.952;2023-08-24T01:18:03;19.14;74.90
72591;SHT31;60625;51.212;5.952;2023-08-24T01:23:09;19.09;75.25
72591;SHT31;60625;51.212;5.952;2023-08-24T01:28:29;19.03;75.38
72591;SHT31;60625;51.212;5.952;2023-08-24T01:33:31;18.98;75.57
72591;SHT31;60625;51.212;5.952;2023-08-24T01:38:32;18.92;75.78
72591;SHT31;60625;51.212;5.952;2023-08-24T01:43:32;18.84;75.99
72591;SHT31;60625;51.212;5.952;2023-08-24T01:48:36;18.78;76.15
72591;SHT31;60625;51.212;5.952;2023-08-24T01:53:37;18.73;76.21
72591;SHT31;60625;51.212;5.952;2023-08-24T01:58:39;18.73;76.42
72591;SHT31;60625;51.212;5.952;2023-08-24T02:03:40;18.75;76.38
72591;SHT31;60625;51.212;5.952;2023-08-24T02:08:41;18.79;76.49
72591;SHT31;60625;51.212;5.952;2023-08-24T02:13:43;18.80;76.73
72591;SHT31;60625;51.212;5.952;2023-08-24T02:18:43;18.82;76.75
72591;SHT31;60625;51.212;5.952;2023-08-24T02:23:43;18.77;77.21
72591;SHT31;60625;51.212;5.952;2023-08-24T02:28:44;18.72;77.58
72591;SHT31;60625;51.212;5.952;2023-08-24T02:33:45;18.68;77.69
72591;SHT31;60625;51.212;5.952;2023-08-24T02:38:46;18.64;77.72
72591;SHT31;60625;51.212;5.952;2023-08-24T02:43:46;18.68;77.59
72591;SHT31;60625;51.212;5.952;2023-08-24T02:48:47;18.71;77.59
72591;SHT31;60625;51.212;5.952;2023-08-24T02:53:48;18.75;77.66
72591;SHT31;60625;51.212;5.952;2023-08-24T02:58:49;18.79;77.78
72591;SHT31;60625;51.212;5.952;2023-08-24T03:03:50;18.81;77.88
72591;SHT31;60625;51.212;5.952;2023-08-24T03:08:50;18.85;77.82
72591;SHT31;60625;51.212;5.952;2023-08-24T03:13:51;18.88;77.76
72591;SHT31;60625;51.212;5.952;2023-08-24T03:18:51;18.95;78.10
72591;SHT31;60625;51.212;5.952;2023-08-24T03:23:55;18.96;78.65
72591;SHT31;60625;51.212;5.952;2023-08-24T03:28:55;18.90;79.02
72591;SHT31;60625;51.212;5.952;2023-08-24T03:33:57;18.84;79.54
72591;SHT31;60625;51.212;5.952;2023-08-24T03:38:58;18.76;80.31
72591;SHT31;60625;51.212;5.952;2023-08-24T03:43:58;18.72;80.89
72591;SHT31;60625;51.212;5.952;2023-08-24T03:48:59;18.70;81.72
72591;SHT31;60625;51.212;5.952;2023-08-24T03:54:00;18.66;82.08
72591;SHT31;60625;51.212;5.952;2023-08-24T03:59:01;18.66;81.69
72591;SHT31;60625;51.212;5.952;2023-08-24T04:04:02;18.72;81.50
72591;SHT31;60625;51.212;5.952;2023-08-24T04:09:04;18.80;80.92
72591;SHT31;60625;51.212;5.952;2023-08-24T04:14:06;18.83;80.71
72591;SHT31;60625;51.212;5.952;2023-08-24T04:19:06;18.81;79.94
72591;SHT31;60625;51.212;5.952;2023-08-24T04:24:07;18.83;78.93
72591;SHT31;60625;51.212;5.952;2023-08-24T04:29:08;18.85;77.89
72591;SHT31;60625;51.212;5.952;2023-08-24T04:34:08;18.90;76.99
72591;SHT31;60625;51.212;5.952;2023-08-24T04:39:09;18.94;76.16
72591;SHT31;60625;51.212;5.952;2023-08-24T04:44:10;18.98;75.46
72591;SHT31;60625;51.212;5.952;2023-08-24T04:49:11;19.00;75.39
72591;SHT31;60625;51.212;5.952;2023-08-24T04:54:11;19.02;75.55
72591;SHT31;60625;51.212;5.952;2023-08-24T04:59:12;19.03;75.67
72591;SHT31;60625;51.212;5.952;2023-08-24T05:04:12;19.05;75.53
72591;SHT31;60625;51.212;5.952;2023-08-24T05:09:13;19.06;75.35
72591;SHT31;60625;51.212;5.952;2023-08-24T05:14:14;19.06;75.35
72591;SHT31;60625;51.212;5.952;2023-08-24T05:19:14;19.06;75.49
72591;SHT31;60625;51.212;5.952;2023-08-24T05:24:15;19.07;75.47
72591;SHT31;60625;51.212;5.952;2023-08-24T05:29:16;19.09;75.33
72591;SHT31;60625;51.212;5.952;2023-08-24T05:34:16;19.11;75.21
72591;SHT31;60625;51.212;5.952;2023-08-24T05:39:17;19.14;75.17
72591;SHT31;60625;51.212;5.952;2023-08-24T05:44:18;19.15;75.09
72591;SHT31;60625;51.212;5.952;2023-08-24T05:49:19;19.19;75.25
72591;SHT31;60625;51.212;5.952;2023-08-24T05:54:20;19.25;75.10
72591;SHT31;60625;51.212;5.952;2023-08-24T05:59:20;19.35;74.85
72591;SHT31;60625;51.212;5.952;2023-08-24T06:04:21;19.49;74.53
72591;SHT31;60625;51.212;5.952;2023-08-24T06:09:23;19.65;73.96
72591;SHT31;60625;51.212;5.952;2023-08-24T06:14:23;19.77;73.67
72591;SHT31;60625;51.212;5.952;2023-08-24T06:19:24;19.89;73.89
72591;SHT31;60625;51.212;5.952;2023-08-24T06:24:24;20.02;74.05
72591;SHT31;60625;51.212;5.952;2023-08-24T06:29:25;20.15;75.01
72591;SHT31;60625;51.212;5.952;2023-08-24T06:34:25;20.26;74.77
72591;SHT31;60625;51.212;5.952;2023-08-24T06:39:26;20.39;74.50
72591;SHT31;60625;51.212;5.952;2023-08-24T06:44:26;20.52;74.10
72591;SHT31;60625;51.212;5.952;2023-08-24T06:49:27;20.61;73.91
72591;SHT31;60625;51.212;5.952;2023-08-24T06:54:27;20.70;74.19
72591;SHT31;60625;51.212;5.952;2023-08-24T06:59:29;20.84;74.19
72591;SHT31;60625;51.212;5.952;2023-08-24T07:04:29;20.97;73.65
72591;SHT31;60625;51.212;5.952;2023-08-24T07:09:32;21.12;73.68
72591;SHT31;60625;51.212;5.952;2023-08-24T07:14:32;21.30;73.24
72591;SHT31;60625;51.212;5.952;2023-08-24T07:19:33;21.53;73.25
72591;SHT31;60625;51.212;5.952;2023-08-24T07:24:34;21.75;72.39
72591;SHT31;60625;51.212;5.952;2023-08-24T07:29:36;21.95;72.34
72591;SHT31;60625;51.212;5.952;2023-08-24T07:34:36;22.11;71.65
72591;SHT31;60625;51.212;5.952;2023-08-24T07:39:37;22.26;71.51
72591;SHT31;60625;51.212;5.952;2023-08-24T07:44:38;22.44;71.75
72591;SHT31;60625;51.212;5.952;2023-08-24T07:49:39;22.69;71.67
72591;SHT31;60625;51.212;5.952;2023-08-24T07:54:44;22.92;70.71
72591;SHT31;60625;51.212;5.952;2023-08-24T07:59:45;23.13;70.41
72591;SHT31;60625;51.212;5.952;2023-08-24T08:04:46;23.36;70.69
72591;SHT31;60625;51.212;5.952;2023-08-24T08:09:46;23.61;70.53
72591;SHT31;60625;51.212;5.952;2023-08-24T08:14:47;23.84;70.68
72591;SHT31;60625;51.212;5.952;2023-08-24T08:19:47;24.04;69.79
72591;SHT31;60625;51.212;5.952;2023-08-24T08:24:48;24.20;69.97
72591;SHT31;60625;51.212;5.952;2023-08-24T08:29:49;24.35;69.35
72591;SHT31;60625;51.212;5.952;2023-08-24T08:34:50;24.48;68.68
72591;SHT31;60625;51.212;5.952;2023-08-24T08:39:51;24.66;69.24
72591;SHT31;60625;51.212;5.952;2023-08-24T08:44:51;24.80;68.58
72591;SHT31;60625;51.212;5.952;2023-08-24T08:49:55;24.96;68.49
72591;SHT31;60625;51.212;5.952;2023-08-24T08:54:56;25.13;68.27
72591;SHT31;60625;51.212;5.952;2023-08-24T08:59:58;25.35;66.86
72591;SHT31;60625;51.212;5.952;2023-08-24T09:04:59;25.56;66.05
72591;SHT31;60625;51.212;5.952;2023-08-24T09:10:05;25.76;64.88
72591;SHT31;60625;51.212;5.952;2023-08-24T09:15:07;25.94;64.04
72591;SHT31;60625;51.212;5.952;2023-08-24T09:20:09;26.10;63.64
72591;SHT31;60625;51.212;5.952;2023-08-24T09:25:11;26.24;63.62
72591;SHT31;60625;51.212;5.952;2023-08-24T09:30:11;26.37;62.98
72591;SHT31;60625;51.212;5.952;2023-08-24T09:35:12;26.56;62.21
72591;SHT31;60625;51.212;5.952;2023-08-24T09:40:13;26.76;61.87
72591;SHT31;60625;51.212;5.952;2023-08-24T09:45:14;26.86;60.96
72591;SHT31;60625;51.212;5.952;2023-08-24T09:50:15;27.03;60.83
72591;SHT31;60625;51.212;5.952;2023-08-24T09:55:17;27.15;59.94
72591;SHT31;60625;51.212;5.952;2023-08-24T10:00:22;27.27;60.74
72591;SHT31;60625;51.212;5.952;2023-08-24T10:05:28;27.45;60.85
72591;SHT31;60625;51.212;5.952;2023-08-24T10:10:31;27.46;59.92
72591;SHT31;60625;51.212;5.952;2023-08-24T10:15:34;27.49;59.51
72591;SHT31;60625;51.212;5.952;2023-08-24T10:20:37;27.44;59.78
72591;SHT31;60625;51.212;5.952;2023-08-24T10:25:38;27.49;60.37
72591;SHT31;60625;51.212;5.952;2023-08-24T10:30:42;27.56;60.10
72591;SHT31;60625;51.212;5.952;2023-08-24T10:35:44;27.55;59.81
72591;SHT31;60625;51.212;5.952;2023-08-24T10:40:52;27.63;60.44
72591;SHT31;60625;51.212;5.952;2023-08-24T10:51:15;27.68;60.25
72591;SHT31;60625;51.212;5.952;2023-08-24T10:56:36;27.67;59.83
72591;SHT31;60625;51.212;5.952;2023-08-24T11:01:42;27.56;60.09
72591;SHT31;60625;51.212;5.952;2023-08-24T11:06:53;27.44;60.51
72591;SHT31;60625;51.212;5.952;2023-08-24T11:12:00;27.33;61.08
72591;SHT31;60625;51.212;5.952;2023-08-24T11:17:19;27.25;61.49
72591;SHT31;60625;51.212;5.952;2023-08-24T11:22:21;27.02;60.69
72591;SHT31;60625;51.212;5.952;2023-08-24T11:27:22;26.72;60.43
72591;SHT31;60625;51.212;5.952;2023-08-24T11:32:23;26.55;60.98
72591;SHT31;60625;51.212;5.952;2023-08-24T11:37:23;26.37;61.89
72591;SHT31;60625;51.212;5.952;2023-08-24T11:42:26;26.22;63.27
72591;SHT31;60625;51.212;5.952;2023-08-24T11:47:36;25.98;64.92
72591;SHT31;60625;51.212;5.952;2023-08-24T11:52:41;25.76;66.53
72591;SHT31;60625;51.212;5.952;2023-08-24T11:57:42;25.69;67.96
72591;SHT31;60625;51.212;5.952;2023-08-24T12:02:43;25.67;69.00
72591;SHT31;60625;51.212;5.952;2023-08-24T12:07:44;25.63;69.03
72591;SHT31;60625;51.212;5.952;2023-08-24T12:12:46;25.69;69.69
72591;SHT31;60625;51.212;5.952;2023-08-24T12:17:48;25.81;70.17
72591;SHT31;60625;51.212;5.952;2023-08-24T12:22:54;25.95;70.19
72591;SHT31;60625;51.212;5.952;2023-08-24T12:28:08;26.13;69.86
72591;SHT31;60625;51.212;5.952;2023-08-24T12:33:20;26.28;69.47
72591;SHT31;60625;51.212;5.952;2023-08-24T12:38:29;26.50;68.64
72591;SHT31;60625;51.212;5.952;2023-08-24T12:43:29;26.70;67.59
72591;SHT31;60625;51.212;5.952;2023-08-24T12:48:30;26.84;67.31
72591;SHT31;60625;51.212;5.952;2023-08-24T12:53:30;26.89;67.03
72591;SHT31;60625;51.212;5.952;2023-08-24T12:58:31;26.85;66.81
72591;SHT31;60625;51.212;5.952;2023-08-24T13:03:32;26.85;67.14
72591;SHT31;60625;51.212;5.952;2023-08-24T13:08:32;26.83;67.27
72591;SHT31;60625;51.212;5.952;2023-08-24T13:13:33;26.82;67.15
72591;SHT31;60625;51.212;5.952;2023-08-24T13:18:33;26.76;67.50
72591;SHT31;60625;51.212;5.952;2023-08-24T13:23:34;26.75;67.68
72591;SHT31;60625;51.212;5.952;2023-08-24T13:28:34;26.67;67.31
72591;SHT31;60625;51.212;5.952;2023-08-24T13:33:35;26.52;67.85
72591;SHT31;60625;51.212;5.952;2023-08-24T13:38:35;26.38;68.33
72591;SHT31;60625;51.212;5.952;2023-08-24T13:43:36;26.23;68.99
72591;SHT31;60625;51.212;5.952;2023-08-24T13:48:38;26.09;69.16
72591;SHT31;60625;51.212;5.952;2023-08-24T13:53:39;25.97;69.82
72591;SHT31;60625;51.212;5.952;2023-08-24T13:58:39;25.77;70.10
72591;SHT31;60625;51.212;5.952;2023-08-24T14:03:40;25.56;70.55
72591;SHT31;60625;51.212;5.952;2023-08-24T14:08:43;25.33;71.28
72591;SHT31;60625;51.212;5.952;2023-08-24T14:13:43;25.15;71.70
72591;SHT31;60625;51.212;5.952;2023-08-24T14:18:47;25.02;72.34
72591;SHT31;60625;51.212;5.952;2023-08-24T14:23:48;24.86;73.07
72591;SHT31;60625;51.212;5.952;2023-08-24T14:28:51;24.66;73.70
72591;SHT31;60625;51.212;5.952;2023-08-24T14:33:59;24.44;74.02
72591;SHT31;60625;51.212;5.952;2023-08-24T14:38:59;24.15;74.17
72591;SHT31;60625;51.212;5.952;2023-08-24T14:44:00;23.87;74.00
72591;SHT31;60625;51.212;5.952;2023-08-24T14:49:01;23.63;74.75
72591;SHT31;60625;51.212;5.952;2023-08-24T14:54:01;23.48;74.83
72591;SHT31;60625;51.212;5.952;2023-08-24T14:59:02;23.34;75.29
72591;SHT31;60625;51.212;5.952;2023-08-24T15:04:03;23.22;75.59
72591;SHT31;60625;51.212;5.952;2023-08-24T15:09:03;23.08;75.63
72591;SHT31;60625;51.212;5.952;2023-08-24T15:14:04;22.95;75.94
72591;SHT31;60625;51.212;5.952;2023-08-24T15:19:04;22.90;76.11
72591;SHT31;60625;51.212;5.952;2023-08-24T15:24:05;22.92;76.08
72591;SHT31;60625;51.212;5.952;2023-08-24T15:29:12;22.87;76.12
72591;SHT31;60625;51.212;5.952;2023-08-24T15:34:18;22.83;76.22
72591;SHT31;60625;51.212;5.952;2023-08-24T15:39:18;22.79;76.48
72591;SHT31;60625;51.212;5.952;2023-08-24T15:44:20;22.76;76.51
72591;SHT31;60625;51.212;5.952;2023-08-24T15:49:20;22.73;76.46
72591;SHT31;60625;51.212;5.952;2023-08-24T15:54:23;22.77;76.57
72591;SHT31;60625;51.212;5.952;2023-08-24T15:59:24;22.85;76.48
72591;SHT31;60625;51.212;5.952;2023-08-24T16:04:25;22.96;76.24
72591;SHT31;60625;51.212;5.952;2023-08-24T16:09:26;23.10;75.93
72591;SHT31;60625;51.212;5.952;2023-08-24T16:14:27;23.25;75.50
72591;SHT31;60625;51.212;5.952;2023-08-24T16:19:28;23.34;75.26
72591;SHT31;60625;51.212;5.952;2023-08-24T16:24:29;23.42;74.64
72591;SHT31;60625;51.212;5.952;2023-08-24T16:29:29;23.46;74.27
72591;SHT31;60625;51.212;5.952;2023-08-24T16:34:30;23.52;74.18
72591;SHT31;60625;51.212;5.952;2023-08-24T16:39:31;23.62;74.00
72591;SHT31;60625;51.212;5.952;2023-08-24T16:44:33;23.76;73.60
72591;SHT31;60625;51.212;5.952;2023-08-24T16:49:34;23.82;73.27
72591;SHT31;60625;51.212;5.952;2023-08-24T16:54:36;23.83;72.89
72591;SHT31;60625;51.212;5.952;2023-08-24T16:59:36;23.83;72.86
72591;SHT31;60625;51.212;5.952;2023-08-24T17:04:37;23.78;72.87
72591;SHT31;60625;51.212;5.952;2023-08-24T17:09:38;23.79;72.85
72591;SHT31;60625;51.212;5.952;2023-08-24T17:14:38;23.80;72.69
72591;SHT31;60625;51.212;5.952;2023-08-24T17:19:39;23.77;73.43
72591;SHT31;60625;51.212;5.952;2023-08-24T17:24:43;23.64;75.60
72591;SHT31;60625;51.212;5.952;2023-08-24T17:29:44;23.56;75.27
72591;SHT31;60625;51.212;5.952;2023-08-24T17:34:44;23.56;74.81
72591;SHT31;60625;51.212;5.952;2023-08-24T17:39:45;23.56;75.03
72591;SHT31;60625;51.212;5.952;2023-08-24T17:44:47;23.58;74.89
72591;SHT31;60625;51.212;5.952;2023-08-24T17:49:47;23.58;74.53
72591;SHT31;60625;51.212;5.952;2023-08-24T17:54:48;23.59;74.11
72591;SHT31;60625;51.212;5.952;2023-08-24T17:59:49;23.58;73.86
72591;SHT31;60625;51.212;5.952;2023-08-24T18:04:50;23.62;74.21
72591;SHT31;60625;51.212;5.952;2023-08-24T18:09:50;23.61;74.24
72591;SHT31;60625;51.212;5.952;2023-08-24T18:14:51;23.55;74.36
72591;SHT31;60625;51.212;5.952;2023-08-24T18:19:51;23.42;75.10
72591;SHT31;60625;51.212;5.952;2023-08-24T18:24:52;23.23;75.66
72591;SHT31;60625;51.212;5.952;2023-08-24T18:29:52;23.11;75.85
72591;SHT31;60625;51.212;5.952;2023-08-24T18:34:54;22.94;76.33
72591;SHT31;60625;51.212;5.952;2023-08-24T18:39:54;22.85;76.75
72591;SHT31;60625;51.212;5.952;2023-08-24T18:44:55;22.72;76.90
72591;SHT31;60625;51.212;5.952;2023-08-24T18:49:55;22.60;77.38
72591;SHT31;60625;51.212;5.952;2023-08-24T18:54:56;22.41;77.75
72591;SHT31;60625;51.212;5.952;2023-08-24T18:59:56;22.30;77.95
72591;SHT31;60625;51.212;5.952;2023-08-24T19:04:57;22.27;77.96
72591;SHT31;60625;51.212;5.952;2023-08-24T19:09:57;22.20;77.97
72591;SHT31;60625;51.212;5.952;2023-08-24T19:14:58;22.05;78.46
72591;SHT31;60625;51.212;5.952;2023-08-24T19:19:58;21.96;78.68
72591;SHT31;60625;51.212;5.952;2023-08-24T19:24:59;21.89;78.92
72591;SHT31;60625;51.212;5.952;2023-08-24T19:30:03;21.83;79.13
72591;SHT31;60625;51.212;5.952;2023-08-24T19:35:05;21.75;79.43
72591;SHT31;60625;51.212;5.952;2023-08-24T19:40:06;21.68;79.59
72591;SHT31;60625;51.212;5.952;2023-08-24T19:45:08;21.66;79.47
72591;SHT31;60625;51.212;5.952;2023-08-24T19:50:09;21.62;79.56
72591;SHT31;60625;51.212;5.952;2023-08-24T19:55:09;21.54;79.24
72591;SHT31;60625;51.212;5.952;2023-08-24T20:00:10;21.50;79.81
72591;SHT31;60625;51.212;5.952;2023-08-24T20:05:12;21.48;80.07
72591;SHT31;60625;51.212;5.952;2023-08-24T20:10:13;21.38;80.22
72591;SHT31;60625;51.212;5.952;2023-08-24T20:15:19;21.28;80.78
72591;SHT31;60625;51.212;5.952;2023-08-24T20:20:19;21.31;81.13
72591;SHT31;60625;51.212;5.952;2023-08-24T20:25:22;21.28;81.36
72591;SHT31;60625;51.212;5.952;2023-08-24T20:30:23;21.25;81.34
72591;SHT31;60625;51.212;5.952;2023-08-24T20:35:23;21.22;81.44
72591;SHT31;60625;51.212;5.952;2023-08-24T20:40:24;21.13;81.50
72591;SHT31;60625;51.212;5.952;2023-08-24T20:45:24;21.07;81.69
72591;SHT31;60625;51.212;5.952;2023-08-24T20:50:25;21.01;81.76
72591;SHT31;60625;51.212;5.952;2023-08-24T20:55:26;20.91;81.84
72591;SHT31;60625;51.212;5.952;2023-08-24T21:00:27;20.87;82.03
72591;SHT31;60625;51.212;5.952;2023-08-24T21:05:27;20.87;82.14
72591;SHT31;60625;51.212;5.952;2023-08-24T21:10:28;20.87;82.47
72591;SHT31;60625;51.212;5.952;2023-08-24T21:15:29;20.88;82.54
72591;SHT31;60625;51.212;5.952;2023-08-24T21:20:30;20.86;82.68
72591;SHT31;60625;51.212;5.952;2023-08-24T21:25:31;20.90;82.65
72591;SHT31;60625;51.212;5.952;2023-08-24T21:30:32;20.94;82.84
72591;SHT31;60625;51.212;5.952;2023-08-24T21:35:34;20.93;82.97
72591;SHT31;60625;51.212;5.952;2023-08-24T21:40:38;20.95;83.11
72591;SHT31;60625;51.212;5.952;2023-08-24T21:45:41;20.98;83.08
72591;SHT31;60625;51.212;5.952;2023-08-24T21:50:42;21.03;83.17
72591;SHT31;60625;51.212;5.952;2023-08-24T21:55:42;21.06;83.17
72591;SHT31;60625;51.212;5.952;2023-08-24T22:00:44;21.07;83.29
72591;SHT31;60625;51.212;5.952;2023-08-24T22:05:45;21.09;83.34
72591;SHT31;60625;51.212;5.952;2023-08-24T22:10:46;21.13;83.43
72591;SHT31;60625;51.212;5.952;2023-08-24T22:15:49;21.13;83.61
72591;SHT31;60625;51.212;5.952;2023-08-24T22:20:50;21.11;83.72
72591;SHT31;60625;51.212;5.952;2023-08-24T22:25:51;21.02;83.68
72591;SHT31;60625;51.212;5.952;2023-08-24T22:30:52;20.95;83.66
72591;SHT31;60625;51.212;5.952;2023-08-24T22:35:53;20.86;83.81
72591;SHT31;60625;51.212;5.952;2023-08-24T22:40:54;20.84;83.90
72591;SHT31;60625;51.212;5.952;2023-08-24T22:45:55;20.82;83.85
72591;SHT31;60625;51.212;5.952;2023-08-24T22:50:57;20.80;83.71
72591;SHT31;60625;51.212;5.952;2023-08-24T22:55:58;20.76;83.65
72591;SHT31;60625;51.212;5.952;2023-08-24T23:00:58;20.69;83.68
72591;SHT31;60625;51.212;5.952;2023-08-24T23:05:59;20.64;83.69
72591;SHT31;60625;51.212;5.952;2023-08-24T23:10:59;20.60;83.78
72591;SHT31;60625;51.212;5.952;2023-08-24T23:16:00;20.57;83.71
72591;SHT31;60625;51.212;5.952;2023-08-24T23:21:04;20.53;83.69
72591;SHT31;60625;51.212;5.952;2023-08-24T23:26:04;20.51;83.63
72591;SHT31;60625;51.212;5.952;2023-08-24T23:31:05;20.49;83.74
72591;SHT31;60625;51.212;5.952;2023-08-24T23:36:05;20.45;83.76
72591;SHT31;60625;51.212;5.952;2023-08-24T23:41:06;20.42;83.81
72591;SHT31;60625;51.212;5.952;2023-08-24T23:46:07;20.37;83.78
72591;SHT31;60625;51.212;5.952;2023-08-24T23:51:07;20.32;83.70
72591;SHT31;60625;51.212;5.952;2023-08-24T23:56:08;20.27;83.68
